createdAt,value
2023-05-06T00:03:24.228Z,15.30
2023-05-06T00:08:27.042Z,15.00
2023-05-06T00:13:31.091Z,15.00
2023-05-06T00:18:33.919Z,15.00
2023-05-06T00:23:36.594Z,14.80
2023-05-06T00:28:40.656Z,14.50
2023-05-06T00:33:44.229Z,14.30
2023-05-06T00:38:46.869Z,14.20
2023-05-06T00:43:50.855Z,14.20
2023-05-06T00:48:53.926Z,14.50
2023-05-06T00:53:56.689Z,14.70
2023-05-06T00:59:00.902Z,14.50
2023-05-06T01:04:03.594Z,14.20
2023-05-06T01:09:13.047Z,14.00
2023-05-06T01:14:26.757Z,13.90
2023-05-06T01:19:38.857Z,13.90
2023-05-06T01:24:44.257Z,13.80
2023-05-06T01:29:48.552Z,13.90
2023-05-06T01:34:57.464Z,13.90
2023-05-06T01:40:03.989Z,13.80
2023-05-06T01:45:09.034Z,13.60
2023-05-06T01:50:12.554Z,13.40
2023-05-06T01:55:16.720Z,13.30
2023-05-06T02:00:19.658Z,13.30
2023-05-06T02:05:22.331Z,13.30
2023-05-06T02:10:26.537Z,13.30
2023-05-06T02:15:29.211Z,13.30
2023-05-06T02:20:31.884Z,13.40
2023-05-06T02:25:35.906Z,13.30
2023-05-06T02:30:38.539Z,13.50
2023-05-06T02:35:41.215Z,13.40
2023-05-06T02:40:45.190Z,13.40
2023-05-06T02:45:47.880Z,13.30
2023-05-06T02:50:51.478Z,13.20
2023-05-06T02:55:55.481Z,13.20
2023-05-06T03:00:58.258Z,13.30
2023-05-06T03:06:01.068Z,13.20
2023-05-06T03:11:06.812Z,13.30
2023-05-06T03:16:14.047Z,13.30
2023-05-06T03:21:16.771Z,13.40
2023-05-06T03:26:21.267Z,13.40
2023-05-06T03:31:23.986Z,13.40
2023-05-06T03:36:27.872Z,13.60
2023-05-06T03:41:31.920Z,13.60
2023-05-06T03:46:34.717Z,13.90
2023-05-06T03:51:37.602Z,13.90
2023-05-06T03:56:41.584Z,13.90
2023-05-06T04:01:44.286Z,14.00
2023-05-06T04:06:47.037Z,13.90
2023-05-06T04:11:50.992Z,14.10
2023-05-06T04:16:53.963Z,14.10
2023-05-06T04:21:56.749Z,14.00
2023-05-06T04:27:00.935Z,14.00
2023-05-06T04:32:04.668Z,13.90
2023-05-06T04:37:07.515Z,13.80
2023-05-06T04:42:11.733Z,13.90
2023-05-06T04:47:14.393Z,14.10
2023-05-06T04:52:17.036Z,14.10
2023-05-06T04:57:21.044Z,14.20
2023-05-06T05:02:23.880Z,14.30
2023-05-06T05:07:26.566Z,14.60
2023-05-06T05:12:30.586Z,14.60
2023-05-06T05:17:33.427Z,14.60
2023-05-06T05:22:36.545Z,14.50
2023-05-06T05:27:42.209Z,14.50
2023-05-06T05:32:45.237Z,14.50
2023-05-06T05:37:47.925Z,14.70
2023-05-06T05:42:52.175Z,14.80
2023-05-06T05:47:54.912Z,14.80
2023-05-06T05:52:57.618Z,14.80
2023-05-06T05:58:01.572Z,14.90
2023-05-06T06:03:04.363Z,15.10
2023-05-06T06:08:07.442Z,15.30
2023-05-06T06:13:11.466Z,15.40
2023-05-06T06:18:14.140Z,15.50
2023-05-06T06:23:16.957Z,15.50
2023-05-06T06:28:21.291Z,15.50
2023-05-06T06:33:23.982Z,15.50
2023-05-06T06:38:26.827Z,15.50
2023-05-06T06:43:30.849Z,15.50
2023-05-06T06:48:33.483Z,15.60
2023-05-06T06:53:36.161Z,15.90
2023-05-06T06:58:40.277Z,16.40
2023-05-06T07:03:42.935Z,16.70
2023-05-06T07:08:45.650Z,17.30
2023-05-06T07:13:49.662Z,18.10
2023-05-06T07:18:53.779Z,18.90
2023-05-06T07:23:56.509Z,18.80
2023-05-06T07:29:00.673Z,18.20
2023-05-06T07:34:03.366Z,18.60
2023-05-06T07:39:06.362Z,18.00
2023-05-06T07:44:10.337Z,18.10
2023-05-06T07:49:12.979Z,18.00
2023-05-06T07:54:15.792Z,18.10
2023-05-06T07:59:19.764Z,17.90
2023-05-06T08:04:22.651Z,18.00
2023-05-06T08:09:25.623Z,17.40
2023-05-06T08:14:29.662Z,17.20
2023-05-06T08:19:32.427Z,16.90
2023-05-06T08:24:35.074Z,16.70
2023-05-06T08:29:39.148Z,16.60
2023-05-06T08:34:41.929Z,16.40
2023-05-06T08:39:45.545Z,16.10
2023-05-06T08:44:52.233Z,15.80
2023-05-06T08:49:54.905Z,15.70
2023-05-06T08:55:01.412Z,15.60
2023-05-06T09:00:10.809Z,15.40
2023-05-06T09:05:13.715Z,15.50
2023-05-06T09:10:18.728Z,15.60
2023-05-06T09:15:26.892Z,15.80
2023-05-06T09:20:29.558Z,15.70
2023-05-06T09:25:33.890Z,15.70
2023-05-06T09:30:41.774Z,15.80
2023-05-06T09:35:45.657Z,16.20
2023-05-06T09:40:48.384Z,16.10
2023-05-06T09:45:55.185Z,16.10
2023-05-06T09:50:59.448Z,16.10
2023-05-06T09:56:04.774Z,16.20
2023-05-06T10:01:09.924Z,16.50
2023-05-06T10:06:13.325Z,16.50
2023-05-06T10:11:16.749Z,16.70
2023-05-06T10:16:21.365Z,17.20
2023-05-06T10:21:32.370Z,17.10
2023-05-06T10:26:38.064Z,17.10
2023-05-06T10:31:52.338Z,17.30
2023-05-06T10:36:58.787Z,17.20
2023-05-06T10:42:01.832Z,16.90
2023-05-06T10:47:05.878Z,17.40
2023-05-06T10:52:14.106Z,17.70
2023-05-06T10:57:17.129Z,17.80
2023-05-06T11:02:21.447Z,17.50
2023-05-06T11:07:24.955Z,17.40
2023-05-06T11:12:48.930Z,17.50
2023-05-06T11:17:53.904Z,17.50
2023-05-06T11:22:56.658Z,17.40
2023-05-06T11:27:59.422Z,17.60
2023-05-06T11:33:05.921Z,17.50
2023-05-06T11:38:08.874Z,17.50
2023-05-06T11:43:12.888Z,18.10
2023-05-06T11:48:18.149Z,18.70
2023-05-06T11:53:22.807Z,19.30
2023-05-06T11:58:27.215Z,19.40
2023-05-06T12:03:33.192Z,19.30
2023-05-06T12:08:37.950Z,19.60
2023-05-06T12:13:41.242Z,20.10
2023-05-06T12:18:45.414Z,24.60
2023-05-06T12:23:52.546Z,25.30
2023-05-06T12:29:07.159Z,24.80
2023-05-06T12:34:11.256Z,24.40
2023-05-06T12:39:14.892Z,24.60
2023-05-06T12:44:34.519Z,23.80
2023-05-06T12:49:51.958Z,24.00
2023-05-06T12:54:54.653Z,25.80
2023-05-06T12:59:57.364Z,25.90
2023-05-06T13:05:02.138Z,25.40
2023-05-06T13:10:06.102Z,24.90
2023-05-06T13:15:10.098Z,24.50
2023-05-06T13:20:14.545Z,24.50
2023-05-06T13:25:17.388Z,24.20
2023-05-06T13:30:20.122Z,23.50
2023-05-06T13:35:24.164Z,23.70
2023-05-06T13:40:26.931Z,22.50
2023-05-06T13:45:29.644Z,21.70
2023-05-06T13:50:36.206Z,20.90
2023-05-06T13:55:39.206Z,20.60
2023-05-06T14:00:41.932Z,20.00
2023-05-06T14:05:46.106Z,20.10
2023-05-06T14:10:48.835Z,21.90
2023-05-06T14:15:51.554Z,22.10
2023-05-06T14:20:56.289Z,21.70
2023-05-06T14:25:59.013Z,22.00
2023-05-06T14:31:01.822Z,22.00
2023-05-06T14:36:06.655Z,21.70
2023-05-06T14:41:09.345Z,20.80
2023-05-06T14:46:14.526Z,20.00
2023-05-06T14:51:19.020Z,20.80
2023-05-06T14:56:22.145Z,22.70
2023-05-06T15:01:24.903Z,22.00
2023-05-06T15:06:28.902Z,21.00
2023-05-06T15:11:31.721Z,22.60
2023-05-06T15:16:34.495Z,24.10
2023-05-06T15:21:38.531Z,23.20
2023-05-06T15:26:41.210Z,21.80
2023-05-06T15:31:45.038Z,20.20
2023-05-06T15:36:52.594Z,19.60
2023-05-06T15:41:55.348Z,19.20
2023-05-06T15:46:58.106Z,19.60
2023-05-06T15:52:02.171Z,19.70
2023-05-06T15:57:07.093Z,19.70
2023-05-06T16:07:17.146Z,19.60
2023-05-06T16:12:20.436Z,19.10
2023-05-06T16:17:25.844Z,19.50
2023-05-06T16:28:37.398Z,18.90
2023-05-06T16:39:09.932Z,18.30
2023-05-06T16:44:28.160Z,18.20
2023-05-06T16:49:33.609Z,18.90
2023-05-06T16:54:39.663Z,19.40
2023-05-06T16:59:44.375Z,19.40
2023-05-06T17:04:47.001Z,18.50
2023-05-06T17:09:52.386Z,17.50
2023-05-06T17:15:00.273Z,16.80
2023-05-06T17:20:05.116Z,16.40
2023-05-06T17:25:08.880Z,16.10
2023-05-06T17:30:15.065Z,15.90
2023-05-06T17:35:17.882Z,15.70
2023-05-06T17:40:20.660Z,15.60
2023-05-06T17:45:25.528Z,15.40
2023-05-06T17:50:28.240Z,15.20
2023-05-06T17:55:31.119Z,15.00
2023-05-06T18:00:35.166Z,14.70
2023-05-06T18:05:37.954Z,14.50
2023-05-06T18:10:41.522Z,14.40
2023-05-06T18:15:45.611Z,14.40
2023-05-06T18:20:48.234Z,14.60
2023-05-06T18:25:50.987Z,14.40
2023-05-06T18:30:54.955Z,14.30
2023-05-06T18:35:57.925Z,14.30
2023-05-06T18:41:02.388Z,14.20
2023-05-06T18:46:06.690Z,14.10
2023-05-06T18:51:13.845Z,14.00
2023-05-06T18:56:16.945Z,13.90
2023-05-06T19:01:21.166Z,13.90
2023-05-06T19:06:25.388Z,13.90
2023-05-06T19:11:29.105Z,13.70
2023-05-06T19:16:33.124Z,13.70
2023-05-06T19:21:38.475Z,13.60
2023-05-06T19:26:41.206Z,13.70
2023-05-06T19:31:45.877Z,13.70
2023-05-06T19:36:48.723Z,13.60
2023-05-06T19:41:55.894Z,13.50
2023-05-06T19:46:59.889Z,13.40
2023-05-06T19:52:03.484Z,13.40
2023-05-06T19:57:06.184Z,13.20
2023-05-06T20:02:13.323Z,13.30
2023-05-06T20:07:16.370Z,13.20
2023-05-06T20:12:19.024Z,13.20
2023-05-06T20:17:23.807Z,13.30
2023-05-06T20:22:27.159Z,13.20
2023-05-06T20:27:29.790Z,13.20
2023-05-06T20:32:33.857Z,13.10
2023-05-06T20:37:36.812Z,13.00
2023-05-06T20:42:41.359Z,12.80
2023-05-06T20:47:45.614Z,12.90
2023-05-06T20:52:48.557Z,12.80
2023-05-06T20:57:51.220Z,12.80
2023-05-06T21:02:55.279Z,12.70
2023-05-06T21:07:57.980Z,12.60
2023-05-06T21:13:01.251Z,12.50
2023-05-06T21:18:05.687Z,12.60
2023-05-06T21:23:08.763Z,12.60
2023-05-06T21:28:11.426Z,12.50
2023-05-06T21:33:15.472Z,12.50
2023-05-06T21:38:18.117Z,12.40
2023-05-06T21:43:20.841Z,12.40
2023-05-06T21:48:24.787Z,12.40
2023-05-06T21:53:27.532Z,12.60
2023-05-06T21:58:30.218Z,12.50
2023-05-06T22:03:34.360Z,12.40
2023-05-06T22:08:37.058Z,12.50
2023-05-06T22:13:39.693Z,12.50
2023-05-06T22:18:43.666Z,12.40
2023-05-06T22:23:46.297Z,12.40
2023-05-06T22:28:49.114Z,12.20
2023-05-06T22:33:55.538Z,12.30
2023-05-06T22:38:58.367Z,12.20
2023-05-06T22:44:01.101Z,12.30
2023-05-06T22:49:06.345Z,12.10
2023-05-06T22:54:10.341Z,12.10
2023-05-06T22:59:13.003Z,12.10
2023-05-06T23:04:15.887Z,12.00
2023-05-06T23:09:19.966Z,12.00
2023-05-06T23:14:22.776Z,11.90
2023-05-06T23:19:25.958Z,11.90
2023-05-06T23:24:29.941Z,11.90
2023-05-06T23:29:32.652Z,11.70
2023-05-06T23:34:35.381Z,11.70
2023-05-06T23:39:39.420Z,11.80
2023-05-06T23:44:42.146Z,11.90
2023-05-06T23:49:44.815Z,11.80
2023-05-06T23:54:48.920Z,11.70
2023-05-06T23:59:51.597Z,11.60
